Terminal Aerodrome Forecast
Issued by NWS Sterling, VA

Current Version | Previous Version | Text Only | Print | Product List | Glossary Off
Versions: 1 2 3 4 5 6 7 8 9 10 11 12 13 14 15 16 17 18 19 20 21 22 23 24 25 26 27 28

000
FTUS41 KLWX 151400 AAD
TAFDCA
TAF AMD
KDCA 151450Z 1515/1612 21010KT 1 1/2SM -RA FEW006 BKN035
     FM151500 20010KT P6SM OVC015
     FM151515 20010KT P6SM SCT035 OVC110
     FM151700 25010KT 3SM -RA OVC015
     FM151800 30013KT 3SM -RA OVC015
     FM152100 34014KT 2SM -RA OVC015
     FM152300 33017G25KT 6SM -SHRA OVC025
     FM160000 33019G30KT P6SM SCT025 OVC035
     FM160400 33020G29KT P6SM FEW040 SCT130
     FM161000 33014KT P6SM SKC=

USA.gov is the U.S. government's official web portal to all federal, state and local government web resources and services.